Impacts TAF Board INFO
FOR SITUATIONAL AWARENESS. NOT TO BE USED FOR FLIGHT PLANNING PURPOSES.
IDs:

KBWI - Baltimore-Washington, MD, US

Issued at 2350 UTC 27 May 2018
Updated at 0137 UTC 28 May 2018
Potential Impact None Slight Moderate High
Time<<28/14Z 28/15Z 28/16Z 28/17Z 28/18Z 28/19Z 28/20Z 28/21Z 28/22Z 28/23Z 29/00Z 29/01Z 29/02Z>>
Type PRVL PRVL PRVL PRVL PRVL PRVL PRVL PRVL PRVL PRVL PRVL PRVL PRVL
VIS >6 >6 >6 >6 >6 >6 >6 >6 >6 >6 >6 >6 >6
CIG 8 8 10 10 10 20 20 20 20 20 20 20 20
Cover OVC OVC BKN BKN BKN BKN BKN BKN BKN BKN BKN BKN BKN
FltCat IFR IFR MVFR MVFR MVFR MVFR MVFR MVFR MVFR MVFR MVFR MVFR MVFR
WX -- -- -- -- -- -- -- -- -- -- -- -- --
WDir 60 60 80 80 80 VRB VRB VRB VRB VRB VRB VRB VRB
WSpd 5 5 4 4 4 4 4 4 4 4 4 4 4
WGst -- -- -- -- -- -- -- -- -- -- -- -- --

Raw TAF
KBWI 272350Z 2800/2906 04009KT P6SM OVC005
  FM280600 08004KT P6SM OVC004
  FM281300 06005KT P6SM OVC008
  FM281600 08004KT P6SM BKN010
  FM281900 VRB04KT P6SM BKN020


METAR Board
Radar Display
Forecast Discussion

FOR SITUATIONAL AWARENESS. NOT TO BE USED FOR FLIGHT PLANNING PURPOSES.